Time;durP1;ratioP1;P1;durP2;ratioP2;P2;SDS_P1;SDS_P2;PMS_P1;PMS_P2;Temp;Humidity;BMP_temperature;BMP_pressure;BME280_temperature;BME280_humidity;BME280_pressure;Samples;Min_cycle;Max_cycle;Signal;HPM_P1;HPM_P2
2024/04/05 00:01:11;;;;;;;8.60;3.20;;;;;;;10.58;61.86;101259.89;107620;1251;113577;-62
2024/04/05 00:03:53;;;;;;;9.40;2.80;;;;;;;10.53;62.03;101258.16;107558;1255;107566;-63
2024/04/05 00:06:21;;;;;;;8.70;2.90;;;;;;;10.49;61.86;101258.85;107550;1251;108229;-63
2024/04/05 00:08:50;;;;;;;7.60;3.60;;;;;;;10.42;62.40;101261.35;107593;1250;100507;-62
2024/04/05 00:11:18;;;;;;;12.60;3.10;;;;;;;10.35;62.21;101265.27;107537;1250;100555;-63
2024/04/05 00:13:46;;;;;;;7.40;3.20;;;;;;;10.28;62.36;101262.23;107563;1250;114406;-63
2024/04/05 00:16:14;;;;;;;6.00;2.60;;;;;;;10.22;62.34;101260.96;107549;1251;109302;-62
2024/04/05 00:18:42;;;;;;;5.30;2.60;;;;;;;10.16;62.76;101264.61;107561;1252;107338;-64
2024/04/05 00:21:10;;;;;;;6.00;2.30;;;;;;;10.11;62.87;101267.36;107498;1251;100544;-63
2024/04/05 00:23:39;;;;;;;6.50;3.00;;;;;;;10.06;63.16;101262.16;107588;1251;100414;-62
2024/04/05 00:26:09;;;;;;;5.50;2.50;;;;;;;10.00;63.31;101261.38;107622;1251;113556;-64
2024/04/05 00:28:37;;;;;;;5.30;2.60;;;;;;;9.94;63.45;101258.06;107601;1250;107460;-64
2024/04/05 00:31:08;;;;;;;5.40;2.30;;;;;;;9.90;63.42;101258.26;107647;1251;108440;-63
2024/04/05 00:33:37;;;;;;;9.80;3.10;;;;;;;9.83;63.37;101261.07;107618;1251;100577;-63
2024/04/05 00:36:05;;;;;;;9.80;3.60;;;;;;;9.78;63.53;101262.70;107541;1256;101268;-63
2024/04/05 00:38:34;;;;;;;7.10;2.90;;;;;;;9.74;63.85;101258.19;107591;1251;114089;-63
2024/04/05 00:41:02;;;;;;;9.10;3.50;;;;;;;9.70;63.76;101264.73;107662;1251;108066;-63
2024/04/05 00:43:30;;;;;;;5.60;3.00;;;;;;;9.66;63.74;101264.02;107599;1255;107751;-63
2024/04/05 00:46:05;;;;;;;6.00;2.70;;;;;;;9.61;64.15;101264.76;107566;1251;100424;-63
2024/04/05 00:48:34;;;;;;;11.30;3.10;;;;;;;9.55;63.99;101263.42;107580;1251;101041;-62
2024/04/05 00:51:06;;;;;;;9.40;3.10;;;;;;;9.49;64.08;101264.55;107643;1255;114949;-62
2024/04/05 00:53:36;;;;;;;9.90;3.00;;;;;;;9.43;64.06;101266.45;107586;1250;106921;-63
2024/04/05 00:56:05;;;;;;;5.90;2.90;;;;;;;9.37;64.16;101269.19;107591;1250;107679;-62
2024/04/05 00:58:33;;;;;;;9.50;2.80;;;;;;;9.32;64.31;101267.29;107610;1251;100516;-62
2024/04/05 01:01:01;;;;;;;9.30;2.70;;;;;;;9.28;64.45;101265.80;107595;1251;100345;-62
2024/04/05 01:03:30;;;;;;;7.40;3.30;;;;;;;9.25;64.59;101271.92;107564;1251;114153;-63
2024/04/05 01:05:59;;;;;;;6.30;3.30;;;;;;;9.22;64.67;101271.05;107561;1251;108698;-62
2024/04/05 01:08:27;;;;;;;7.20;3.20;;;;;;;9.20;64.94;101274.59;107559;1255;107683;-62
2024/04/05 01:10:55;;;;;;;7.00;3.00;;;;;;;9.21;65.10;101276.17;107566;1251;100764;-63
2024/04/05 01:13:23;;;;;;;10.20;3.80;;;;;;;9.22;65.38;101281.60;107567;1251;100536;-63
2024/04/05 01:15:52;;;;;;;12.30;3.30;;;;;;;9.23;65.37;101284.02;107608;1251;114471;-63
2024/04/05 01:18:20;;;;;;;7.00;3.80;;;;;;;9.26;65.77;101287.11;107541;1251;107936;-62
2024/04/05 01:20:50;;;;;;;9.30;3.20;;;;;;;9.28;65.73;101290.31;107578;1254;108340;-64
2024/04/05 01:23:23;;;;;;;7.00;3.00;;;;;;;9.31;65.60;101290.79;107583;1251;100592;-64
2024/04/05 01:25:53;;;;;;;7.30;3.70;;;;;;;9.34;65.60;101292.40;107598;1251;100667;-64
2024/04/05 01:28:21;;;;;;;6.60;3.10;;;;;;;9.33;65.79;101293.89;107589;1251;114268;-64
2024/04/05 01:30:49;;;;;;;5.20;3.10;;;;;;;9.31;65.96;101298.16;107554;1251;106727;-64
2024/04/05 01:33:17;;;;;;;7.20;3.10;;;;;;;9.30;65.84;101297.67;107564;1251;107432;-64
2024/04/05 01:35:45;;;;;;;12.70;3.80;;;;;;;9.29;65.84;101298.61;107534;1251;100532;-64
2024/04/05 01:38:13;;;;;;;8.00;3.70;;;;;;;9.28;66.01;101298.58;107599;1251;100552;-64
2024/04/05 01:40:41;;;;;;;4.30;3.00;;;;;;;9.27;65.97;101303.48;107606;1251;113806;-65
2024/04/05 01:43:10;;;;;;;13.20;3.40;;;;;;;9.25;66.12;101301.97;107595;1255;108312;-64
2024/04/05 01:45:38;;;;;;;9.20;3.90;;;;;;;9.23;65.91;101302.48;107577;1251;106901;-62
2024/04/05 01:48:07;;;;;;;7.10;3.30;;;;;;;9.22;66.05;101307.77;107607;1251;100551;-64
2024/04/05 01:50:35;;;;;;;6.10;3.50;;;;;;;9.18;66.18;101309.15;107621;1251;100423;-61
2024/04/05 01:53:04;;;;;;;9.20;3.40;;;;;;;9.13;66.21;101311.29;107607;1251;114416;-61
2024/04/05 01:55:32;;;;;;;8.90;3.50;;;;;;;9.08;66.36;101309.50;107552;1251;108228;-64
2024/04/05 01:58:00;;;;;;;12.80;3.50;;;;;;;9.03;66.33;101314.68;107561;1251;107797;-63
2024/04/05 02:00:29;;;;;;;8.10;3.30;;;;;;;8.98;66.69;101315.41;107550;1251;100417;-65
2024/04/05 02:02:57;;;;;;;6.90;3.70;;;;;;;8.92;66.86;101320.48;107608;1254;100599;-63
2024/04/05 02:05:25;;;;;;;8.20;3.90;;;;;;;8.85;67.38;101317.65;107557;1254;114408;-64
2024/04/05 02:07:53;;;;;;;7.10;3.10;;;;;;;8.77;67.77;101321.02;107561;1254;107800;-64
2024/04/05 02:10:21;;;;;;;6.80;3.10;;;;;;;8.72;67.47;101320.65;107514;1254;107544;-64
2024/04/05 02:12:49;;;;;;;6.60;3.30;;;;;;;8.69;67.48;101322.70;107528;1254;100551;-64
2024/04/05 02:15:18;;;;;;;7.80;3.50;;;;;;;8.65;67.68;101320.14;107613;1254;101160;-64
2024/04/05 02:17:46;;;;;;;8.10;3.70;;;;;;;8.61;67.49;101322.70;107612;1254;113964;-64
2024/04/05 02:20:14;;;;;;;6.30;3.60;;;;;;;8.58;67.46;101325.77;107545;1256;107884;-62
2024/04/05 02:22:42;;;;;;;8.30;4.10;;;;;;;8.56;67.44;101326.11;107512;1256;107184;-63
2024/04/05 02:25:11;;;;;;;6.70;3.60;;;;;;;8.54;67.63;101326.63;107527;1253;100532;-63
2024/04/05 02:27:40;;;;;;;9.70;4.00;;;;;;;8.50;67.74;101330.81;107643;1254;100645;-63
2024/04/05 02:30:08;;;;;;;7.60;3.80;;;;;;;8.47;67.70;101332.63;107569;1253;113907;-63
2024/04/05 02:32:36;;;;;;;13.50;3.80;;;;;;;8.40;67.59;101332.73;107653;1254;108124;-63
2024/04/05 02:35:05;;;;;;;8.30;3.80;;;;;;;8.36;67.78;101331.05;107597;1252;107774;-64
2024/04/05 02:37:33;;;;;;;12.20;4.50;;;;;;;8.33;67.64;101328.56;107577;1256;100552;-63
2024/04/05 02:40:02;;;;;;;13.50;4.50;;;;;;;8.31;68.00;101335.17;107603;1254;100528;-63
2024/04/05 02:42:31;;;;;;;8.70;4.10;;;;;;;8.28;67.97;101338.08;107581;1256;114537;-63
2024/04/05 02:44:59;;;;;;;12.50;4.50;;;;;;;8.25;68.08;101338.80;107562;1254;108025;-64
2024/04/05 02:47:28;;;;;;;9.20;4.80;;;;;;;8.21;67.93;101335.36;107497;1254;106920;-63
2024/04/05 02:49:56;;;;;;;13.70;4.50;;;;;;;8.18;68.02;101330.41;107519;1259;100568;-64
2024/04/05 02:52:24;;;;;;;8.50;4.50;;;;;;;8.14;68.20;101332.73;107576;1256;100417;-63
2024/04/05 02:54:53;;;;;;;14.30;5.50;;;;;;;8.10;68.33;101340.55;107584;1255;113601;-64
2024/04/05 02:57:21;;;;;;;8.90;4.60;;;;;;;8.06;68.65;101340.84;107609;1251;108324;-64
2024/04/05 02:59:49;;;;;;;10.40;5.50;;;;;;;8.01;68.82;101342.79;107537;1252;106894;-65
2024/04/05 03:02:17;;;;;;;11.60;5.60;;;;;;;7.97;68.95;101342.46;107563;1250;100612;-62
2024/04/05 03:04:45;;;;;;;8.50;4.50;;;;;;;7.95;68.86;101349.77;107563;1253;100382;-63
2024/04/05 03:07:14;;;;;;;7.50;4.50;;;;;;;7.92;68.82;101348.79;107597;1251;114335;-64
2024/04/05 03:09:42;;;;;;;16.20;5.70;;;;;;;7.87;68.74;101349.98;107591;1251;108298;-65
2024/04/05 03:12:10;;;;;;;12.40;6.50;;;;;;;7.83;68.67;101352.90;107608;1254;107668;-63
2024/04/05 03:14:39;;;;;;;11.90;5.40;;;;;;;7.82;68.83;101357.64;107598;1251;100538;-63
2024/04/05 03:17:07;;;;;;;13.80;5.10;;;;;;;7.79;68.79;101358.52;107574;1251;101109;-63
2024/04/05 03:19:35;;;;;;;14.70;6.00;;;;;;;7.77;69.15;101353.84;107604;1251;114151;-62
2024/04/05 03:22:03;;;;;;;13.60;5.40;;;;;;;7.75;69.31;101360.77;107590;1251;107471;-64
2024/04/05 03:24:32;;;;;;;11.60;5.20;;;;;;;7.73;69.53;101357.38;107565;1251;107668;-64
2024/04/05 03:27:00;;;;;;;8.00;5.10;;;;;;;7.69;69.35;101363.86;107579;1251;100532;-62
2024/04/05 03:29:28;;;;;;;12.30;4.90;;;;;;;7.65;69.54;101368.21;107549;1251;100411;-63
2024/04/05 03:31:56;;;;;;;12.60;5.60;;;;;;;7.60;69.72;101364.26;107561;1251;114607;-65
2024/04/05 03:34:25;;;;;;;8.80;5.00;;;;;;;7.56;69.47;101363.14;107674;1251;108320;-63
2024/04/05 03:36:53;;;;;;;8.60;4.90;;;;;;;7.54;69.54;101364.34;107562;1251;107269;-64
2024/04/05 03:39:21;;;;;;;11.60;4.90;;;;;;;7.57;70.24;101365.94;107615;1251;100629;-64
2024/04/05 03:41:49;;;;;;;8.10;5.20;;;;;;;7.60;70.42;101361.63;107576;1251;101080;-64
2024/04/05 03:44:17;;;;;;;10.10;5.10;;;;;;;7.53;70.63;101367.96;107565;1250;114568;-63
2024/04/05 03:46:47;;;;;;;15.10;5.10;;;;;;;7.49;70.67;101366.45;107588;1254;107877;-63
2024/04/05 03:49:16;;;;;;;11.60;5.30;;;;;;;7.44;70.77;101370.11;107497;1256;107492;-63
2024/04/05 03:51:44;;;;;;;12.00;5.80;;;;;;;7.42;70.82;101371.73;107552;1255;100542;-63
2024/04/05 03:54:12;;;;;;;8.70;5.30;;;;;;;7.38;70.48;101375.68;107578;1254;101060;-63
2024/04/05 03:56:41;;;;;;;10.80;5.40;;;;;;;7.35;70.34;101376.78;107559;1251;114034;-62
2024/04/05 03:59:09;;;;;;;13.50;5.20;;;;;;;7.34;70.54;101376.52;107594;1251;108658;-63
2024/04/05 04:01:39;;;;;;;13.30;6.00;;;;;;;7.31;70.41;101380.09;107557;1256;106949;-64
2024/04/05 04:04:08;;;;;;;8.30;4.70;;;;;;;7.30;70.35;101384.10;107511;1251;100625;-63
2024/04/05 04:06:36;;;;;;;10.30;4.80;;;;;;;7.31;70.48;101387.02;107589;1251;100418;-64
2024/04/05 04:09:04;;;;;;;9.90;4.80;;;;;;;7.34;70.53;101391.66;107566;1251;114932;-64
2024/04/05 04:11:33;;;;;;;9.80;5.70;;;;;;;7.36;70.57;101393.33;107550;1251;108367;-64
2024/04/05 04:14:02;;;;;;;8.00;5.00;;;;;;;7.38;70.62;101394.80;107586;1251;108427;-64
2024/04/05 04:16:31;;;;;;;9.20;5.20;;;;;;;7.40;70.73;101395.39;107558;1251;100609;-62
2024/04/05 04:18:59;;;;;;;15.50;6.10;;;;;;;7.42;70.62;101397.05;107554;1252;100478;-63
2024/04/05 04:21:27;;;;;;;9.80;5.20;;;;;;;7.43;70.67;101391.77;107505;1251;114810;-65
2024/04/05 04:23:56;;;;;;;13.00;5.60;;;;;;;7.46;70.76;101391.95;107553;1251;108529;-64
2024/04/05 04:26:25;;;;;;;15.00;6.30;;;;;;;7.48;70.74;101395.39;107591;1251;108566;-64
2024/04/05 04:28:53;;;;;;;23.80;5.60;;;;;;;7.50;70.85;101393.84;107515;1251;100619;-64
2024/04/05 04:31:22;;;;;;;10.70;5.50;;;;;;;7.53;70.86;101391.87;107570;1256;100557;-63
2024/04/05 04:33:51;;;;;;;14.10;5.80;;;;;;;7.55;70.93;101393.33;107607;1251;115086;-63
2024/04/05 04:36:23;;;;;;;19.90;5.90;;;;;;;7.58;70.99;101393.70;107585;1251;106695;-64
2024/04/05 04:38:54;;;;;;;8.90;5.30;;;;;;;7.62;71.16;101394.52;107584;1251;108265;-64
2024/04/05 04:41:22;;;;;;;13.90;5.90;;;;;;;7.65;71.07;101396.29;107538;1251;100584;-63
2024/04/05 04:43:52;;;;;;;17.00;6.10;;;;;;;7.68;71.01;101393.91;107527;1251;100541;-63
2024/04/05 04:46:21;;;;;;;18.80;6.20;;;;;;;7.73;71.14;101390.74;107559;1255;114002;-63
2024/04/05 04:48:49;;;;;;;16.20;5.70;;;;;;;7.78;71.21;101394.48;107535;1256;108001;-63
2024/04/05 04:51:17;;;;;;;17.00;6.70;;;;;;;7.83;71.31;101397.17;107591;1251;106780;-63
2024/04/05 04:53:45;;;;;;;20.40;6.90;;;;;;;7.89;71.32;101402.17;107518;1257;100610;-63
2024/04/05 04:56:16;;;;;;;15.30;6.60;;;;;;;7.94;71.49;101402.36;107530;1250;100599;-64
2024/04/05 04:58:44;;;;;;;19.80;6.80;;;;;;;8.01;71.48;101404.23;107558;1251;114510;-64
2024/04/05 05:01:12;;;;;;;33.70;8.20;;;;;;;8.07;71.68;101408.30;107517;1253;107746;-64
2024/04/05 05:03:40;;;;;;;22.50;9.30;;;;;;;8.12;71.75;101408.45;107589;1251;107732;-66
2024/04/05 05:06:09;;;;;;;37.90;10.50;;;;;;;8.18;71.80;101406.67;107547;1251;100526;-64
2024/04/05 05:08:37;;;;;;;19.60;8.00;;;;;;;8.25;72.00;101408.34;107595;1251;100433;-64
2024/04/05 05:11:06;;;;;;;33.90;7.70;;;;;;;8.37;72.16;101401.61;107544;1253;114476;-65
2024/04/05 05:13:34;;;;;;;30.80;7.80;;;;;;;8.46;72.14;101405.25;107538;1251;108302;-64
2024/04/05 05:16:03;;;;;;;36.20;7.60;;;;;;;8.53;72.06;101399.27;107521;1251;107817;-64
2024/04/05 05:18:31;;;;;;;27.40;6.90;;;;;;;8.60;72.03;101403.61;107532;1255;100513;-64
2024/04/05 05:20:59;;;;;;;28.20;7.00;;;;;;;8.68;72.19;101406.60;107497;1256;101061;-64
2024/04/05 05:23:27;;;;;;;29.40;6.50;;;;;;;8.77;72.28;101407.41;107513;1255;114647;-63
2024/04/05 05:25:57;;;;;;;35.80;7.40;;;;;;;8.85;72.37;101407.91;107541;1256;107649;-63
2024/04/05 05:28:25;;;;;;;27.40;6.80;;;;;;;8.93;72.36;101409.19;107543;1251;106643;-64
2024/04/05 05:30:53;;;;;;;23.60;7.20;;;;;;;9.00;72.49;101409.42;107486;1256;100602;-62
2024/04/05 05:33:22;;;;;;;16.60;7.30;;;;;;;9.08;72.55;101411.89;107499;1251;101066;-63
2024/04/05 05:35:50;;;;;;;23.50;7.40;;;;;;;9.15;72.61;101412.42;107546;1254;114544;-63
2024/04/05 05:38:18;;;;;;;22.10;7.20;;;;;;;9.23;72.60;101410.92;107552;1251;108734;-63
2024/04/05 05:40:46;;;;;;;127.30;12.70;;;;;;;9.32;72.48;101411.40;107489;1251;107958;-63
2024/04/05 05:43:14;;;;;;;24.20;6.20;;;;;;;9.41;72.50;101408.57;107514;1255;100746;-64
2024/04/05 05:45:43;;;;;;;21.20;6.90;;;;;;;9.52;73.06;101412.60;107561;1251;101326;-65
2024/04/05 05:48:11;;;;;;;16.20;5.40;;;;;;;9.65;72.92;101412.04;107526;1251;114423;-65
2024/04/05 05:50:39;;;;;;;17.30;6.20;;;;;;;9.77;73.08;101411.86;107543;1254;107597;-64
2024/04/05 05:53:07;;;;;;;17.80;6.80;;;;;;;9.89;72.86;101410.38;107620;1254;108172;-65
2024/04/05 05:55:36;;;;;;;9.90;5.00;;;;;;;10.04;72.61;101413.75;107547;1255;100551;-65
2024/04/05 05:58:04;;;;;;;18.50;6.20;;;;;;;10.17;72.39;101413.65;107485;1254;100448;-64
2024/04/05 06:00:32;;;;;;;14.10;4.80;;;;;;;10.32;72.07;101415.59;107549;1254;113174;-64
2024/04/05 06:03:01;;;;;;;9.70;4.40;;;;;;;10.42;71.51;101414.29;107574;1257;107151;-64
2024/04/05 06:05:29;;;;;;;15.40;4.70;;;;;;;10.53;71.06;101416.01;107587;1251;107446;-64
2024/04/05 06:07:57;;;;;;;11.80;4.20;;;;;;;10.61;70.58;101413.15;107515;1256;100683;-62
2024/04/05 06:10:25;;;;;;;12.30;4.40;;;;;;;10.72;70.19;101411.83;107552;1251;100413;-64
2024/04/05 06:12:53;;;;;;;10.50;4.10;;;;;;;10.82;69.93;101414.08;107632;1251;114327;-63
2024/04/05 06:15:22;;;;;;;14.00;3.50;;;;;;;10.93;69.74;101416.09;107573;1251;107942;-63
2024/04/05 06:17:50;;;;;;;17.50;4.80;;;;;;;11.03;69.18;101417.75;107552;1251;108666;-65
2024/04/05 06:20:18;;;;;;;17.30;4.10;;;;;;;11.14;68.84;101417.29;107490;1257;100629;-64
2024/04/05 06:22:46;;;;;;;14.60;5.00;;;;;;;11.22;68.51;101421.64;107564;1254;100408;-62
2024/04/05 06:25:15;;;;;;;14.30;4.40;;;;;;;11.32;68.27;101424.46;107607;1254;114068;-63
2024/04/05 06:27:43;;;;;;;15.30;4.70;;;;;;;11.43;67.83;101424.12;107620;1255;108514;-63
2024/04/05 06:30:11;;;;;;;16.90;4.80;;;;;;;11.52;67.41;101425.33;107517;1255;107772;-63
2024/04/05 06:32:39;;;;;;;17.20;5.50;;;;;;;11.60;67.26;101426.42;107557;1257;100622;-63
2024/04/05 06:35:08;;;;;;;21.00;5.40;;;;;;;11.70;67.26;101429.10;107598;1254;100417;-64
2024/04/05 06:37:37;;;;;;;12.00;4.40;;;;;;;11.78;67.07;101430.55;107543;1254;113478;-63
2024/04/05 06:40:08;;;;;;;13.20;4.00;;;;;;;11.85;66.65;101431.58;107540;1255;108106;-63
2024/04/05 06:42:36;;;;;;;13.40;4.80;;;;;;;11.92;66.35;101433.59;107529;1254;107020;-63
2024/04/05 06:45:08;;;;;;;17.80;4.30;;;;;;;12.00;65.86;101438.79;107517;1254;100645;-64
2024/04/05 06:47:36;;;;;;;19.90;5.00;;;;;;;12.14;64.60;101443.73;107524;1255;100411;-63
2024/04/05 06:50:05;;;;;;;21.20;5.30;;;;;;;12.25;64.21;101447.84;107507;1254;114025;-63
2024/04/05 06:52:33;;;;;;;24.70;6.90;;;;;;;12.37;64.10;101446.85;107555;1254;107835;-64
2024/04/05 06:55:01;;;;;;;22.90;5.60;;;;;;;12.49;63.42;101447.48;107545;1257;108064;-62
2024/04/05 06:57:30;;;;;;;19.60;5.60;;;;;;;12.60;63.60;101445.29;107506;1253;100532;-65
2024/04/05 06:59:58;;;;;;;22.70;5.80;;;;;;;12.70;63.74;101446.20;107503;1254;101031;-63
2024/04/05 07:02:26;;;;;;;15.00;4.60;;;;;;;12.79;63.76;101442.17;107482;1254;114179;-62
2024/04/05 07:04:54;;;;;;;12.00;6.70;;;;;;;12.86;62.88;101450.38;107562;1256;108584;-62
2024/04/05 07:07:22;;;;;;;12.90;4.90;;;;;;;12.94;61.56;101448.80;107568;1256;107084;-62
2024/04/05 07:09:50;;;;;;;18.50;4.50;;;;;;;13.04;61.64;101443.63;107506;1254;100523;-63
2024/04/05 07:12:19;;;;;;;7.90;2.50;;;;;;;13.12;61.17;101447.22;107556;1254;101214;-63
2024/04/05 07:14:47;;;;;;;6.50;2.10;;;;;;;13.20;58.00;101448.92;107536;1254;115323;-62
2024/04/05 07:17:15;;;;;;;6.30;2.70;;;;;;;13.31;56.39;101446.43;107563;1257;108199;-63
2024/04/05 07:19:47;;;;;;;12.00;2.40;;;;;;;13.42;55.74;101447.85;107519;1255;108178;-62
2024/04/05 07:22:16;;;;;;;3.80;2.00;;;;;;;13.51;54.75;101448.81;107546;1252;100520;-63
2024/04/05 07:24:45;;;;;;;6.90;2.10;;;;;;;13.60;54.38;101445.48;107547;1252;100538;-62
2024/04/05 07:27:13;;;;;;;4.60;1.30;;;;;;;13.71;53.40;101451.50;107549;1254;113256;-62
2024/04/05 07:29:43;;;;;;;6.70;2.00;;;;;;;13.82;52.58;101452.94;107581;1256;108226;-62
2024/04/05 07:32:12;;;;;;;3.20;1.40;;;;;;;13.92;51.70;101450.52;107523;1254;108434;-63
2024/04/05 07:34:41;;;;;;;7.50;1.90;;;;;;;14.02;51.46;101449.23;107561;1255;100532;-63
2024/04/05 07:37:09;;;;;;;2.80;1.00;;;;;;;14.12;51.07;101449.39;107558;1255;100523;-63
2024/04/05 07:39:39;;;;;;;4.10;1.30;;;;;;;14.23;48.99;101449.46;107524;1254;114405;-63
2024/04/05 07:42:07;;;;;;;4.90;1.30;;;;;;;14.34;50.05;101451.71;107540;1254;108602;-63
2024/04/05 07:44:36;;;;;;;7.40;1.90;;;;;;;14.42;49.37;101447.90;107540;1255;107506;-64
2024/04/05 07:47:04;;;;;;;7.00;1.40;;;;;;;14.50;49.74;101445.86;107573;1254;100625;-63
2024/04/05 07:49:32;;;;;;;5.90;1.90;;;;;;;14.57;48.77;101449.02;107578;1254;101074;-65
2024/04/05 07:52:00;;;;;;;4.00;1.10;;;;;;;14.67;48.53;101443.94;107596;1251;113155;-64
2024/04/05 07:54:28;;;;;;;1.70;1.00;;;;;;;14.75;45.82;101450.11;107534;1251;109781;-63
2024/04/05 07:56:56;;;;;;;3.50;1.50;;;;;;;14.85;46.67;101446.44;107522;1251;107054;-63
2024/04/05 07:59:41;;;;;;;10.00;1.50;;;;;;;14.98;48.02;101445.11;106911;1254;100539;-63
2024/04/05 08:02:09;;;;;;;2.60;1.20;;;;;;;15.11;48.25;101445.52;107592;1251;101077;-63
2024/04/05 08:04:37;;;;;;;3.20;1.40;;;;;;;15.20;47.51;101448.83;107523;1251;114303;-63
2024/04/05 08:07:06;;;;;;;3.60;1.70;;;;;;;15.31;47.93;101444.50;107541;1251;108302;-63
2024/04/05 08:09:34;;;;;;;7.10;1.60;;;;;;;15.42;47.49;101447.34;107519;1251;108010;-63
2024/04/05 08:12:05;;;;;;;4.70;2.00;;;;;;;15.52;47.71;101439.89;107550;1251;100522;-63
2024/04/05 08:14:38;;;;;;;11.50;1.80;;;;;;;15.64;47.55;101434.73;107570;1251;100453;-63
2024/04/05 08:17:06;;;;;;;3.40;1.60;;;;;;;15.76;47.20;101434.48;107594;1251;114007;-63
2024/04/05 08:19:34;;;;;;;2.60;1.50;;;;;;;15.86;47.35;101438.36;107551;1251;107433;-63
2024/04/05 08:22:03;;;;;;;4.30;1.60;;;;;;;15.97;46.72;101439.60;107568;1251;108101;-64
2024/04/05 08:24:31;;;;;;;2.70;1.50;;;;;;;16.11;45.30;101438.59;107492;1251;100520;-64
2024/04/05 08:26:59;;;;;;;8.10;1.60;;;;;;;16.21;44.26;101433.02;107425;1251;100205;-63
2024/04/05 08:29:27;;;;;;;6.80;1.70;;;;;;;16.32;45.25;101424.72;107505;1251;113934;-63
2024/04/05 08:31:55;;;;;;;6.70;1.90;;;;;;;16.47;44.93;101433.08;107499;1251;108405;-64
2024/04/05 08:34:24;;;;;;;5.90;1.70;;;;;;;16.60;44.08;101430.88;107500;1251;108104;-64
2024/04/05 08:36:52;;;;;;;3.90;1.30;;;;;;;16.71;43.50;101425.69;107476;1251;100520;-64
2024/04/05 08:39:23;;;;;;;5.80;1.30;;;;;;;16.83;43.70;101424.16;107523;1251;100526;-64
2024/04/05 08:41:52;;;;;;;4.30;1.50;;;;;;;16.96;43.71;101422.83;107482;1251;115028;-64
2024/04/05 08:44:20;;;;;;;8.10;1.40;;;;;;;17.11;42.99;101410.54;107448;1251;108354;-64
2024/04/05 08:46:48;;;;;;;6.10;1.60;;;;;;;17.26;42.91;101416.33;107500;1251;108284;-64
2024/04/05 08:49:19;;;;;;;4.30;1.90;;;;;;;17.43;42.94;101410.94;107585;1251;100602;-64
2024/04/05 08:51:47;;;;;;;4.30;1.70;;;;;;;17.62;42.28;101412.89;107510;1251;100523;-64
2024/04/05 08:54:15;;;;;;;3.80;1.80;;;;;;;17.82;41.05;101407.07;107531;1251;114805;-63
2024/04/05 08:56:48;;;;;;;8.40;1.40;;;;;;;18.01;41.18;101402.81;107496;1251;108336;-64
2024/04/05 08:59:19;;;;;;;3.00;1.30;;;;;;;18.26;40.60;101403.77;107499;1251;107140;-64
2024/04/05 09:01:51;;;;;;;3.00;1.40;;;;;;;18.49;39.98;101400.67;107564;1253;100526;-63
2024/04/05 09:04:19;;;;;;;4.80;1.80;;;;;;;18.70;39.54;101408.98;107448;1254;100436;-64
2024/04/05 09:06:48;;;;;;;1.50;1.00;;;;;;;18.87;38.72;101417.96;107554;1251;114498;-62
2024/04/05 09:09:27;;;;;;;2.00;1.10;;;;;;;19.00;38.23;101411.83;107675;1256;107461;-63
2024/04/05 09:12:07;;;;;;;6.20;1.40;;;;;;;19.24;38.65;101412.95;107563;1253;106831;-62
2024/04/05 09:14:38;;;;;;;9.20;1.40;;;;;;;19.58;38.92;101407.27;107537;1251;100414;-64
2024/04/05 09:17:18;;;;;;;4.90;1.30;;;;;;;19.92;37.84;101404.51;107611;1251;100551;-63
2024/04/05 09:19:47;;;;;;;3.90;1.30;;;;;;;20.20;37.21;101406.42;107524;1254;114599;-64
2024/04/05 09:22:24;;;;;;;5.40;1.80;;;;;;;20.52;37.32;101400.23;107489;1251;108349;-63
2024/04/05 09:25:12;;;;;;;2.30;1.10;;;;;;;20.79;36.34;101395.38;107540;1254;108327;-63
2024/04/05 09:27:40;;;;;;;3.10;1.20;;;;;;;21.31;35.42;101390.39;107581;1253;100609;-63
2024/04/05 09:30:09;;;;;;;2.50;1.50;;;;;;;21.95;34.29;101392.64;107617;1254;100414;-63
2024/04/05 09:32:38;;;;;;;2.70;1.40;;;;;;;22.62;33.01;101389.20;107610;1256;113139;-63
2024/04/05 09:35:11;;;;;;;4.70;1.40;;;;;;;23.24;31.89;101400.14;107485;1250;108619;-63
2024/04/05 09:37:39;;;;;;;2.50;1.20;;;;;;;23.78;31.65;101391.89;107485;1251;107721;-64
2024/04/05 09:40:10;;;;;;;4.90;1.90;;;;;;;24.45;32.65;101387.09;107482;1251;100528;-63
2024/04/05 09:42:41;;;;;;;6.80;1.30;;;;;;;25.13;31.94;101386.73;107499;1251;100538;-64
2024/04/05 09:45:12;;;;;;;4.50;1.70;;;;;;;25.49;29.62;101386.30;107565;1251;113413;-63
2024/04/05 09:47:42;;;;;;;2.50;1.00;;;;;;;25.91;28.64;101392.88;107474;1251;107582;-62
2024/04/05 09:50:10;;;;;;;4.30;1.30;;;;;;;26.15;28.32;101386.79;107551;1251;108219;-65
2024/04/05 09:52:44;;;;;;;2.30;1.00;;;;;;;26.59;28.48;101385.46;107459;1251;100545;-63
2024/04/05 09:55:16;;;;;;;8.90;1.30;;;;;;;27.06;26.92;101385.08;107512;1251;100538;-65
2024/04/05 09:57:47;;;;;;;2.90;1.00;;;;;;;27.48;25.88;101381.39;107503;1251;116158;-63
2024/04/05 10:00:21;;;;;;;5.10;1.10;;;;;;;27.90;26.46;101382.89;107493;1251;108309;-63
2024/04/05 10:02:52;;;;;;;4.70;1.20;;;;;;;28.42;24.93;101385.64;107468;1254;108598;-63
2024/04/05 10:05:32;;;;;;;2.00;1.10;;;;;;;27.91;25.00;101387.84;107529;1251;100516;-63
2024/04/05 10:08:17;;;;;;;2.70;1.00;;;;;;;28.27;26.29;101383.14;107518;1251;100449;-62
2024/04/05 10:10:45;;;;;;;2.20;1.00;;;;;;;28.95;23.76;101382.64;107555;1251;114624;-63
2024/04/05 10:13:18;;;;;;;2.90;1.00;;;;;;;29.29;23.95;101380.72;107488;1251;108567;-63
2024/04/05 10:15:59;;;;;;;2.60;1.10;;;;;;;29.65;22.70;101376.18;107535;1251;106951;-65
2024/04/05 10:18:36;;;;;;;4.00;1.00;;;;;;;30.26;24.16;101371.67;107519;1251;100535;-63
2024/04/05 10:21:10;;;;;;;3.60;1.00;;;;;;;31.05;22.94;101371.19;107553;1251;101179;-63
2024/04/05 10:23:42;;;;;;;2.20;1.10;;;;;;;31.28;21.35;101375.48;107540;1250;115000;-63
2024/04/05 10:26:15;;;;;;;3.50;1.10;;;;;;;31.49;21.79;101375.70;107548;1251;107584;-64
2024/04/05 10:28:44;;;;;;;4.40;1.10;;;;;;;31.91;20.67;101369.15;107617;1251;106276;-64
2024/04/05 10:31:12;;;;;;;1.90;1.10;;;;;;;32.05;20.87;101369.88;107543;1251;100520;-64
2024/04/05 10:33:45;;;;;;;1.50;0.40;;;;;;;32.14;20.22;101367.26;107540;1251;101061;-63
2024/04/05 10:36:13;;;;;;;;;;;;;;;31.54;19.54;101367.11;107571;1251;114030;-64
2024/04/05 10:38:43;;;;;;;2.40;0.70;;;;;;;30.86;20.92;101365.14;107582;1251;108967;-63
2024/04/05 10:41:18;;;;;;;2.60;0.80;;;;;;;30.49;20.25;101367.52;107576;1251;107669;-63
2024/04/05 10:43:47;;;;;;;1.50;1.10;;;;;;;29.75;20.36;101369.10;107570;1251;100548;-64
2024/04/05 10:46:17;;;;;;;2.70;0.80;;;;;;;28.97;21.38;101369.98;107565;1251;100440;-61
2024/04/05 10:48:56;;;;;;;4.10;0.90;;;;;;;28.86;21.99;101361.17;107591;1251;113560;-63
2024/04/05 10:51:25;;;;;;;6.10;1.20;;;;;;;29.18;22.58;101357.05;107573;1251;108549;-63
2024/04/05 10:53:54;;;;;;;3.60;0.90;;;;;;;29.37;22.66;101358.21;107576;1251;108854;-63
2024/04/05 10:56:24;;;;;;;5.00;1.20;;;;;;;29.63;21.78;101358.91;107649;1251;100642;-64
2024/04/05 10:58:53;;;;;;;6.70;0.80;;;;;;;29.57;21.47;101354.27;107574;1250;101070;-62
2024/04/05 11:01:21;;;;;;;5.10;1.70;;;;;;;29.73;21.55;101353.25;107687;1250;114123;-63
2024/04/05 11:03:56;;;;;;;16.20;1.30;;;;;;;29.84;21.57;101356.10;107583;1251;108322;-63
2024/04/05 11:06:27;;;;;;;3.80;1.00;;;;;;;29.83;20.86;101351.98;107588;1251;108443;-63
2024/04/05 11:08:58;;;;;;;5.40;1.00;;;;;;;30.11;21.03;101356.56;107402;1251;100578;-63
2024/04/05 11:11:26;;;;;;;1.80;0.90;;;;;;;30.46;21.30;101352.24;107692;1251;101041;-63
2024/04/05 11:14:10;;;;;;;1.30;0.70;;;;;;;30.57;20.31;101353.63;107566;1251;113866;-63
2024/04/05 11:16:40;;;;;;;17.20;10.10;;;;;;;30.38;21.30;101351.20;107545;1251;108316;-63
2024/04/05 11:19:08;;;;;;;9.10;6.30;;;;;;;30.50;21.61;101353.30;107491;1251;107618;-63